Flight Track Log - Related Links

Times and Time Zones

All times are in EDT time to prevent confusion due to time zone crossing. See the DAL268 flight status page for this flight to view local times or setup timezone preferences in your user account.


Time Position Orientation Groundspeed Altitude Reporting Facility
EDT Latitude Longitude Course Direction KTS MPH feet Rate Location/Type
Tue 02:46:05 PM 37.6100 -122.3790 360° North 78 90  Level FlightAware ADS-B
Tue 02:46:19 PM 37.6150 -122.3750 32° Northeast 130 150 789 Level FlightAware ADS-B
Tue 02:46:43 PM 37.6323 -122.3640 27° Northeast 167 192 500 1,500 Climbing FlightAware ADS-B
Tue 02:46:51 PM 37.6376 -122.3600 31° Northeast 174 200 800 2,500 Climbing FlightAware ADS-B
Tue 02:46:55 PM 37.6404 -122.3580 29° Northeast 176 203 1,000 2,571 Climbing FlightAware ADS-B
Tue 02:46:58 PM 37.6423 -122.3550 51° Northeast 181 208 1,100 1,714 Climbing FlightAware ADS-B
Tue 02:47:02 PM 37.6444 -122.3530 37° Northeast 183 211 1,200 1,714 Climbing FlightAware ADS-B
Tue 02:47:12 PM 37.6502 -122.3440 51° Northeast 194 223 1,500 1,667 Climbing FlightAware ADS-B
Tue 02:47:20 PM 37.6551 -122.3370 49° Northeast 208 239 1,700 1,565 Climbing FlightAware ADS-B
Tue 02:47:35 PM 37.6664 -122.3230 44° Northeast 231 266 2,100 1,742 Climbing FlightAware ADS-B
Tue 02:47:51 PM 37.6785 -122.3080 44° Northeast 245 282 2,600 2,160 Climbing FlightAware ADS-B
Tue 02:48:00 PM 37.6858 -122.2990 44° Northeast 253 291 3,000 2,400 Climbing FlightAware ADS-B
Tue 02:48:16 PM 37.6996 -122.2810 46° Northeast 270 311 3,600 2,368 Climbing FlightAware ADS-B
Tue 02:48:38 PM 37.7192 -122.2560 45° Northeast 280 322 4,500 2,927 Climbing FlightAware ADS-B
Tue 02:48:57 PM 37.7364 -122.2340 45° Northeast 281 323 5,600 3,000 Climbing FlightAware ADS-B
Tue 02:49:12 PM 37.7506 -122.2160 45° Northeast 286 329 6,200 2,526 Climbing FlightAware ADS-B
Tue 02:49:35 PM 37.7735 -122.1880 44° Northeast 301 346 7,200 3,000 Climbing FlightAware ADS-B
Tue 02:49:46 PM 37.7841 -122.1730 48° Northeast 299 344 7,900 3,250 Climbing FlightAware ADS-B
Tue 02:49:59 PM 37.7930 -122.1550 58° Northeast 298 343 8,500 2,700 Climbing FlightAware ADS-B
Tue 02:50:06 PM 37.7969 -122.1440 66° East 300 345 8,800 2,769 Climbing FlightAware ADS-B
Tue 02:50:12 PM 37.7997 -122.1340 70° East 300 345 9,100 3,130 Climbing FlightAware ADS-B
Tue 02:50:29 PM 37.8067 -122.1050 73° East 299 344 10,000 2,375 Climbing FlightAware ADS-B
Tue 02:51:00 PM 37.8197 -122.0520 73° East 318 366 11,000 1,574 Climbing FlightAware ADS-B
Tue 02:51:30 PM 37.8336 -121.9960 73° East 348 400 11,600 1,200 Climbing FlightAware ADS-B
Tue 02:52:00 PM 37.8487 -121.9340 73° East 376 433 12,200 1,672 Climbing FlightAware ADS-B
Tue 02:52:31 PM 37.8651 -121.8680 73° East 391 450 13,300 2,164 Climbing FlightAware ADS-B
Tue 02:53:01 PM 37.8814 -121.8020 73° East 398 458 14,400 2,300 Climbing FlightAware ADS-B
Tue 02:53:31 PM 37.8982 -121.7340 73° East 403 464 15,600 2,164 Climbing FlightAware ADS-B
Tue 02:54:02 PM 37.9150 -121.6650 73° East 410 472 16,600 1,967 Climbing FlightAware ADS-B
Tue 02:54:32 PM 37.9321 -121.5950 73° East 417 480 17,600 1,967 Climbing FlightAware ADS-B
Tue 02:55:03 PM 37.9498 -121.5220 73° East 427 491 18,600 1,875 Climbing FlightAware ADS-B
Tue 02:55:36 PM 37.9694 -121.4410 73° East 436 502 19,600 1,781 Climbing FlightAware ADS-B
Tue 02:56:07 PM 37.9879 -121.3650 73° East 443 510 20,500 1,701 Climbing FlightAware ADS-B
Tue 02:56:43 PM 38.0098 -121.2750 73° East 453 521 21,500 1,588 Climbing FlightAware ADS-B
Tue 02:57:15 PM 38.0291 -121.1940 73° East 460 529 22,300 1,457 Climbing FlightAware ADS-B
Tue 02:57:53 PM 38.0520 -121.0970 73° East 470 541 23,200 1,500 Climbing FlightAware ADS-B
Tue 02:58:31 PM 38.0800 -121.0000 70° East 480 552 24,200 1,541 Climbing FlightAware ADS-B
Tue 02:59:07 PM 38.1230 -120.9080 59° Northeast 490 564 25,100 1,300 Climbing FlightAware ADS-B
Tue 02:59:31 PM 38.1510 -120.8510 58° Northeast 498 573 25,500 1,273 Climbing FlightAware ADS-B
Tue 03:00:13 PM 38.2020 -120.7430 59° Northeast 507 583 26,500 1,371 Climbing FlightAware ADS-B
Tue 03:00:41 PM 38.2370 -120.6710 58° Northeast 512 589 27,100 1,235 Climbing FlightAware ADS-B
Tue 03:01:21 PM 38.2850 -120.5690 59° Northeast 518 596 27,900 1,412 Climbing FlightAware ADS-B
Tue 03:01:49 PM 38.3190 -120.4940 60° Northeast 517 595 28,700 2,800 Climbing FlightAware ADS-B
Tue 03:02:21 PM 38.3510 -120.4100 64° Northeast 486 559 30,700 2,382 Climbing FlightAware ADS-B
Tue 03:02:57 PM 38.3850 -120.3160 65° Northeast 491 565 31,400 750 Climbing FlightAware ADS-B
Tue 03:03:33 PM 38.4090 -120.2150 73° East 504 580 31,600 500 Climbing FlightAware ADS-B
Tue 03:04:09 PM 38.4230 -120.1080 80° East 509 586 32,000 1,043 Climbing FlightAware ADS-B
Tue 03:04:42 PM 38.4300 -120.0110 85° East 508 585 32,800 1,588 Climbing FlightAware ADS-B
Tue 03:05:17 PM 38.4390 -119.9070 84° East 501 577 33,800 1,437 Climbing FlightAware ADS-B
Tue 03:05:53 PM 38.4470 -119.8020 84° East 502 578 34,500 971 Climbing FlightAware ADS-B
Tue 03:06:25 PM 38.4540 -119.7100 84° East 507 583 34,900 971 Climbing FlightAware ADS-B
Tue 03:07:01 PM 38.4620 -119.6000 85° East 505 581 35,600 1,026 Climbing FlightAware ADS-B
Tue 03:07:41 PM 38.4700 -119.4840 85° East 506 582 36,200 951 Climbing FlightAware ADS-B
Tue 03:08:23 PM 38.4790 -119.3580 85° East 508 585 36,900 667 Climbing FlightAware ADS-B
Tue 03:08:53 PM 38.4860 -119.2650 84° East 510 587 37,000 90 Climbing FlightAware ADS-B
Tue 03:09:30 PM 38.4930 -119.1570 85° East 510 587 37,000  Level FlightAware ADS-B
Tue 03:10:05 PM 38.5010 -119.0500 85° East 511 588 37,000  Level FlightAware ADS-B
Tue 03:10:43 PM 38.5080 -118.9370 85° East 513 590 37,000  Level FlightAware ADS-B
Tue 03:11:03 PM 38.5120 -118.8800 85° East 513 590 37,000  Level FlightAware ADS-B
Tue 03:11:57 PM 38.5230 -118.7150 85° East 513 590 37,000  Level FlightAware ADS-B
Tue 03:12:45 PM 38.5320 -118.5670 86° East 515 593 37,000  Level FlightAware ADS-B
Tue 03:13:31 PM 38.5410 -118.4290 85° East 517 595 37,000  Level FlightAware ADS-B
Tue 03:14:03 PM 38.5470 -118.3300 86° East 517 595 37,000  Level FlightAware ADS-B
Tue 03:14:39 PM 38.5540 -118.2200 85° East 517 595 37,000  Level FlightAware ADS-B
Tue 03:15:12 PM 38.5600 -118.1250 85° East 515 593 37,000  Level FlightAware ADS-B
Tue 03:15:48 PM 38.5690 -118.0140 84° East 519 597 37,000  Level FlightAware ADS-B
Tue 03:16:26 PM 38.5830 -117.9120 80° East 519 597 37,000  Level FlightAware ADS-B
Tue 03:17:02 PM 38.5960 -117.8190 80° East 519 597 37,000  Level FlightAware ADS-B
Tue 03:17:39 PM 38.6090 -117.7240 80° East 519 597 37,000  Level FlightAware ADS-B
Tue 03:18:15 PM 38.6220 -117.6310 80° East 519 597 37,000  Level FlightAware ADS-B
Tue 03:18:51 PM 38.6350 -117.5390 80° East 519 597 37,000  Level FlightAware ADS-B
Tue 03:19:28 PM 38.6480 -117.4440 80° East 519 597 37,000  Level FlightAware ADS-B
Tue 03:20:24 PM 38.6680 -117.2990 80° East 519 597 37,000  Level FlightAware ADS-B
Tue 03:21:00 PM 38.6800 -117.2070 80° East 519 597 37,000  Level FlightAware ADS-B
Tue 03:21:36 PM 38.6930 -117.1140 80° East 519 597 37,000  Level FlightAware ADS-B
Tue 03:22:12 PM 38.7060 -117.0210 80° East 519 597 37,000  Level FlightAware ADS-B
Tue 03:23:22 PM 38.7310 -116.8410 80° East 519 597 37,000  Level FlightAware ADS-B
Tue 03:24:10 PM 38.7480 -116.7170 80° East 519 597 37,000  Level FlightAware ADS-B
Tue 03:24:58 PM 38.7650 -116.5940 80° East 519 597 37,000  Level FlightAware ADS-B
Tue 03:25:34 PM 38.7770 -116.5010 81° East 519 597 37,000  Level FlightAware ADS-B
Tue 03:26:14 PM 38.8494 -116.1264 81° East 517 595 37,000  Level Salt Lake Center
Tue 03:27:16 PM 38.8753 -115.9450 80° East 515 593 37,000  Level Salt Lake Center
Tue 03:28:18 PM 38.9003 -115.7639 80° East 518 596 37,000  Level Salt Lake Center
Tue 03:29:20 PM 38.9261 -115.5803 80° East 521 600 37,000  Level Salt Lake Center
Tue 03:30:22 PM 38.9503 -115.3969 80° East 522 601 37,000  Level Salt Lake Center
Tue 03:31:24 PM 38.9775 -115.2053 80° East 525 604 37,000  Level Salt Lake Center
Tue 03:32:26 PM 39.0014 -115.0217 80° East 524 603 37,000  Level Salt Lake Center
Tue 03:33:28 PM 39.0247 -114.8353 81° East 526 605 37,000  Level Salt Lake Center
Tue 03:39:30 PM 39.1700 -113.6690 81° East 535 616 37,000  Level FlightAware ADS-B
Tue 03:39:54 PM 39.1790 -113.5970 81° East 535 616 37,000  Level FlightAware ADS-B
Tue 03:40:56 PM 39.2010 -113.4120 81° East 535 616 37,000  Level FlightAware ADS-B
Tue 03:41:32 PM 39.2130 -113.3160 81° East 535 616 37,000  Level FlightAware ADS-B
Tue 03:42:20 PM 39.2280 -113.1870 81° East 535 616 37,000  Level FlightAware ADS-B
Tue 03:43:02 PM 39.2476 -112.9990 82° East 536 617 37,000  Level FlightAware ADS-B
Tue 03:43:33 PM 39.2585 -112.9030 82° East 536 617 37,000  Level FlightAware ADS-B
Tue 03:44:04 PM 39.2693 -112.8050 82° East 535 616 37,000  Level FlightAware ADS-B
Tue 03:44:35 PM 39.2801 -112.7080 82° East 536 617 37,000  Level FlightAware ADS-B
Tue 03:45:06 PM 39.2909 -112.6100 82° East 536 617 37,000  Level FlightAware ADS-B
Tue 03:45:22 PM 39.2972 -112.5590 81° East 538 619 37,000  Level FlightAware ADS-B
Tue 03:45:37 PM 39.3062 -112.5120 76° East 541 623 37,000  Level FlightAware ADS-B
Tue 03:45:59 PM 39.3252 -112.4440 70° East 542 624 37,000  Level FlightAware ADS-B
Tue 03:46:30 PM 39.3576 -112.3550 65° Northeast 542 624 37,000  Level FlightAware ADS-B
Tue 03:47:00 PM 39.3904 -112.2660 64° Northeast 543 625 37,000  Level FlightAware ADS-B
Tue 03:47:31 PM 39.4234 -112.1770 64° Northeast 542 624 37,000  Level FlightAware ADS-B
Tue 03:48:04 PM 39.4588 -112.0800 65° Northeast 542 624 37,000  Level FlightAware ADS-B
Tue 03:48:44 PM 39.5022 -111.9610 65° Northeast 543 625 37,000  Level FlightAware ADS-B
Tue 03:49:22 PM 39.5420 -111.8520 65° Northeast 543 625 37,000  Level FlightAware ADS-B
Tue 03:49:52 PM 39.5742 -111.7630 65° Northeast 544 626 37,000  Level FlightAware ADS-B
Tue 03:50:25 PM 39.6087 -111.6670 65° Northeast 544 626 37,000  Level FlightAware ADS-B
Tue 03:50:59 PM 39.6458 -111.5640 65° Northeast 544 626 37,000  Level FlightAware ADS-B
Tue 03:51:36 PM 39.6849 -111.4550 65° Northeast 544 626 37,000  Level FlightAware ADS-B
Tue 03:52:01 PM 39.7108 -111.3810 66° East 545 627 37,000  Level FlightAware ADS-B
Tue 03:52:25 PM 39.7307 -111.3060 71° East 544 626 37,000  Level FlightAware ADS-B
Tue 03:52:33 PM 39.7355 -111.2820 75° East 544 626 37,000  Level FlightAware ADS-B
Tue 03:53:04 PM 39.7525 -111.1850 77° East 542 624 37,000  Level FlightAware ADS-B
Tue 03:53:34 PM 39.7690 -111.0900 77° East 543 625 37,000  Level FlightAware ADS-B
Tue 03:54:05 PM 39.7858 -110.9910 78° East 543 625 37,000  Level FlightAware ADS-B
Tue 03:54:45 PM 39.8077 -110.8640 77° East 542 624 37,000  Level FlightAware ADS-B
Tue 03:55:44 PM 39.8330 -110.7180 77° East 541 623 37,000  Level FlightAware ADS-B
Tue 03:56:23 PM 39.8530 -110.5980 78° East 540 621 37,000 250 Level FlightAware ADS-B
Tue 03:56:56 PM 39.8780 -110.4530 77° East 540 621 37,300 771 Climbing FlightAware ADS-B
Tue 03:57:33 PM 39.8980 -110.3350 78° East 539 620 37,900 917 Climbing FlightAware ADS-B
Tue 03:58:08 PM 39.9170 -110.2250 77° East 537 618 38,400 917 Climbing FlightAware ADS-B
Tue 03:58:45 PM 39.9410 -110.1120 74° East 535 616 39,000 581 Climbing FlightAware ADS-B
Tue 03:59:10 PM 39.9600 -110.0330 73° East 535 616 39,000  Level FlightAware ADS-B
Tue 03:59:45 PM 39.9880 -109.9250 71° East 532 612 39,000  Level FlightAware ADS-B
Tue 04:00:47 PM 40.0260 -109.7770 71° East 533 613 39,000  Level FlightAware ADS-B
Tue 04:01:23 PM 40.0660 -109.6240 71° East 535 616 39,000  Level FlightAware ADS-B
Tue 04:01:58 PM 40.0930 -109.5210 71° East 536 617 39,000  Level FlightAware ADS-B
Tue 04:02:36 PM 40.1240 -109.4030 71° East 536 617 39,000  Level FlightAware ADS-B
Tue 04:03:09 PM 40.1500 -109.3010 72° East 536 617 39,000  Level FlightAware ADS-B
Tue 04:03:57 PM 40.1880 -109.1530 71° East 537 618 39,000  Level FlightAware ADS-B
Tue 04:04:34 PM 40.2160 -109.0420 72° East 538 619 39,000  Level FlightAware ADS-B
Tue 04:05:05 PM 40.2420 -108.9430 71° East 538 619 39,000  Level FlightAware ADS-B
Tue 04:05:42 PM 40.2700 -108.8310 72° East 538 619 39,000  Level FlightAware ADS-B
Tue 04:06:18 PM 40.2980 -108.7190 72° East 540 621 39,000  Level FlightAware ADS-B
Tue 04:06:50 PM 40.3230 -108.6220 71° East 540 621 39,000  Level FlightAware ADS-B
Tue 04:07:21 PM 40.3470 -108.5230 72° East 540 621 39,000  Level FlightAware ADS-B
Tue 04:07:56 PM 40.3740 -108.4160 72° East 540 621 39,000  Level FlightAware ADS-B
Tue 04:08:28 PM 40.3990 -108.3160 72° East 540 621 39,000  Level FlightAware ADS-B
Tue 04:09:04 PM 40.4260 -108.2060 72° East 541 623 39,000  Level FlightAware ADS-B
Tue 04:09:38 PM 40.4530 -108.0970 72° East 540 621 39,000  Level FlightAware ADS-B
Tue 04:10:14 PM 40.4800 -107.9850 72° East 541 623 39,000  Level FlightAware ADS-B
Tue 04:10:49 PM 40.5070 -107.8750 72° East 541 623 39,000  Level FlightAware ADS-B
Tue 04:11:26 PM 40.5340 -107.7620 73° East 541 623 39,000  Level FlightAware ADS-B
Tue 04:11:58 PM 40.5580 -107.6650 72° East 542 624 39,000  Level FlightAware ADS-B
Tue 04:12:33 PM 40.5850 -107.5530 72° East 541 623 39,000  Level FlightAware ADS-B
Tue 04:13:11 PM 40.6130 -107.4360 72° East 541 623 39,000  Level FlightAware ADS-B
Tue 04:13:41 PM 40.6340 -107.3480 73° East 541 623 39,000  Level FlightAware ADS-B
Tue 04:14:18 PM 40.6620 -107.2270 73° East 541 623 39,000  Level FlightAware ADS-B
Tue 04:14:56 PM 40.6920 -107.1020 72° East 542 624 39,000  Level FlightAware ADS-B
Tue 04:15:32 PM 40.7130 -106.9880 76° East 542 624 39,000  Level FlightAware ADS-B
Tue 04:16:02 PM 40.7250 -106.8910 81° East 543 625 39,000  Level FlightAware ADS-B
Tue 04:16:41 PM 40.7390 -106.7620 82° East 543 625 39,000  Level FlightAware ADS-B
Tue 04:17:16 PM 40.7520 -106.6460 82° East 543 625 39,000  Level FlightAware ADS-B
Tue 04:17:53 PM 40.7660 -106.5310 81° East 544 626 39,000  Level FlightAware ADS-B
Tue 04:18:25 PM 40.7780 -106.4270 81° East 545 627 39,000  Level FlightAware ADS-B
Tue 04:18:59 PM 40.7910 -106.3110 82° East 543 625 39,000  Level FlightAware ADS-B
Tue 04:19:31 PM 40.8030 -106.2060 81° East 543 625 39,000  Level FlightAware ADS-B
Tue 04:20:11 PM 40.8180 -106.0810 81° East 543 625 39,000  Level FlightAware ADS-B
Tue 04:20:47 PM 40.8320 -105.9600 81° East 544 626 39,000  Level FlightAware ADS-B
Tue 04:21:17 PM 40.8450 -105.8600 80° East 545 627 39,000  Level FlightAware ADS-B
Tue 04:21:55 PM 40.8610 -105.7390 80° East 546 628 39,000  Level FlightAware ADS-B
Tue 04:22:36 PM 40.8800 -105.6000 80° East 544 626 39,000  Level FlightAware ADS-B
Tue 04:23:02 PM 40.8914 -105.5130 80° East 545 627 39,000  Level FlightAware ADS-B
Tue 04:23:50 PM 40.9130 -105.3560 80° East 546 628 39,000  Level FlightAware ADS-B
Tue 04:24:17 PM 40.9280 -105.2690 77° East 545 627 39,000  Level FlightAware ADS-B
Tue 04:24:49 PM 40.9467 -105.1660 76° East 545 627 39,000  Level FlightAware ADS-B
Tue 04:25:19 PM 40.9647 -105.0690 76° East 545 627 39,000  Level FlightAware ADS-B
Tue 04:25:50 PM 40.9833 -104.9700 76° East 546 628 39,000  Level FlightAware ADS-B
Tue 04:26:20 PM 41.0016 -104.8720 76° East 547 629 39,000  Level FlightAware ADS-B
Tue 04:26:51 PM 41.0203 -104.7720 76° East 544 626 39,000  Level FlightAware ADS-B
Tue 04:27:21 PM 41.0415 -104.6750 74° East 545 627 39,000  Level FlightAware ADS-B
Tue 04:27:51 PM 41.0649 -104.5800 72° East 544 626 39,000  Level FlightAware ADS-B
Tue 04:28:22 PM 41.0896 -104.4850 71° East 545 627 39,000  Level FlightAware ADS-B
Tue 04:28:52 PM 41.1142 -104.3910 71° East 544 626 39,000  Level FlightAware ADS-B
Tue 04:29:22 PM 41.1395 -104.2950 71° East 543 625 39,000  Level FlightAware ADS-B
Tue 04:29:52 PM 41.1644 -104.2010 71° East 541 623 39,000  Level FlightAware ADS-B
Tue 04:30:22 PM 41.1894 -104.1070 71° East 543 625 39,000  Level FlightAware ADS-B
Tue 04:30:53 PM 41.2146 -104.0120 71° East 541 623 39,000  Level FlightAware ADS-B
Tue 04:31:26 PM 41.2425 -103.9060 71° East 542 624 39,000  Level FlightAware ADS-B
Tue 04:31:58 PM 41.2682 -103.8080 71° East 542 624 39,000  Level FlightAware ADS-B
Tue 04:32:32 PM 41.2967 -103.7000 71° East 542 624 39,000  Level FlightAware ADS-B
Tue 04:33:04 PM 41.3230 -103.5990 71° East 543 625 39,000  Level FlightAware ADS-B
Tue 04:33:34 PM 41.3476 -103.5040 71° East 543 625 39,000  Level FlightAware ADS-B
Tue 04:34:05 PM 41.3726 -103.4070 71° East 543 625 39,000  Level FlightAware ADS-B
Tue 04:34:36 PM 41.3978 -103.3090 71° East 543 625 39,000  Level FlightAware ADS-B
Tue 04:35:07 PM 41.4223 -103.2130 71° East 542 624 39,000  Level FlightAware ADS-B
Tue 04:35:45 PM 41.4531 -103.0920 71° East 541 623 39,000  Level FlightAware ADS-B
Tue 04:36:07 PM 41.4697 -103.0230 72° East 542 624 39,000  Level FlightAware ADS-B
Tue 04:36:29 PM 41.4788 -102.9520 80° East 543 625 39,000  Level FlightAware ADS-B
Tue 04:37:07 PM 41.4944 -102.8240 81° East 544 626 39,000  Level FlightAware ADS-B
Tue 04:37:55 PM 41.5140 -102.6690 80° East 544 626 39,000  Level FlightAware ADS-B
Tue 04:38:29 PM 41.5281 -102.5570 80° East 544 626 39,000  Level FlightAware ADS-B
Tue 04:38:59 PM 41.5406 -102.4560 81° East 543 625 39,000  Level FlightAware ADS-B
Tue 04:39:31 PM 41.5535 -102.3500 81° East 542 624 39,000  Level FlightAware ADS-B
Tue 04:40:02 PM 41.5662 -102.2480 81° East 542 624 39,000  Level FlightAware ADS-B
Tue 04:40:35 PM 41.5794 -102.1400 81° East 542 624 39,000  Level FlightAware ADS-B
Tue 04:41:25 PM 41.5995 -101.9760 81° East 540 621 39,000  Level FlightAware ADS-B
Tue 04:42:00 PM 41.6138 -101.8610 81° East 540 621 39,000  Level FlightAware ADS-B
Tue 04:42:38 PM 41.6292 -101.7370 81° East 540 621 39,000  Level FlightAware ADS-B
Tue 04:43:08 PM 41.6417 -101.6370 80° East 540 621 39,000  Level FlightAware ADS-B
Tue 04:43:46 PM 41.6577 -101.5110 80° East 540 621 39,000  Level FlightAware ADS-B
Tue 04:44:18 PM 41.6708 -101.4090 80° East 540 621 39,000  Level FlightAware ADS-B
Tue 04:44:48 PM 41.6838 -101.3090 80° East 539 620 39,000  Level FlightAware ADS-B
Tue 04:45:53 PM 41.7094 -101.1192 80° East 537 618 39,000  Level Denver Center
Tue 04:46:55 PM 41.7328 -100.9325 80° East 532 612 39,000  Level Denver Center
Tue 04:47:57 PM 41.7603 -100.7114 80° East 536 617 39,000  Level Denver Center
Tue 04:48:59 PM 41.7861 -100.5236 79° East 535 616 39,000  Level Denver Center
Tue 04:50:01 PM 41.8181 -100.3033 79° East 539 620 39,000  Level Denver Center
Tue 04:51:03 PM 41.8453 -100.1150 79° East 537 618 39,000  Level Denver Center
Tue 04:52:05 PM 41.8772 -99.8953 79° East 537 618 39,000  Level Denver Center
Tue 04:53:07 PM 41.9050 -99.7192 78° East 538 619 39,000  Level Denver Center
Tue 04:54:09 PM 41.9353 -99.5239 78° East 534 615 39,000  Level Denver Center
Tue 04:55:11 PM 41.9719 -99.2858 78° East 537 618 39,000  Level Denver Center
Tue 04:56:12 PM 42.0008 -99.0875 79° East 536 617 39,000  Level Denver Center
Tue 04:57:14 PM 42.0311 -98.8908 78° East 536 617 39,000  Level Denver Center
Tue 04:58:16 PM 42.0597 -98.6917 79° East 538 619 39,000  Level Denver Center
Tue 05:04:10 PM 42.2240 -97.5170 79° East 538 619 39,000  Level FlightAware ADS-B
Tue 05:04:50 PM 42.2430 -97.3800 79° East 538 619 39,000  Level FlightAware ADS-B
Tue 05:05:25 PM 42.2580 -97.2630 80° East 538 619 39,000  Level FlightAware ADS-B
Tue 05:06:00 PM 42.2730 -97.1490 80° East 537 618 39,000  Level FlightAware ADS-B
Tue 05:06:36 PM 42.2890 -97.0300 80° East 537 618 39,000  Level FlightAware ADS-B
Tue 05:07:13 PM 42.3040 -96.9100 80° East 535 616 39,000  Level FlightAware ADS-B
Tue 05:07:46 PM 42.3190 -96.7970 80° East 534 615 39,000  Level FlightAware ADS-B
Tue 05:08:24 PM 42.3350 -96.6710 80° East 533 613 39,000  Level FlightAware ADS-B
Tue 05:08:58 PM 42.3490 -96.5580 80° East 532 612 39,000  Level FlightAware ADS-B
Tue 05:09:31 PM 42.3620 -96.4570 80° East 531 611 39,000  Level FlightAware ADS-B
Tue 05:10:06 PM 42.3770 -96.3380 80° East 530 610 39,000  Level FlightAware ADS-B
Tue 05:10:38 PM 42.3900 -96.2340 80° East 529 609 39,000  Level FlightAware ADS-B
Tue 05:11:19 PM 42.4050 -96.1090 81° East 528 608 39,000  Level FlightAware ADS-B
Tue 05:11:49 PM 42.4180 -96.0050 80° East 526 605 39,000  Level FlightAware ADS-B
Tue 05:12:28 PM 42.4330 -95.8770 81° East 525 604 39,000  Level FlightAware ADS-B
Tue 05:13:04 PM 42.4470 -95.7600 81° East 524 603 39,000  Level FlightAware ADS-B
Tue 05:13:37 PM 42.4590 -95.6590 81° East 523 602 39,000  Level FlightAware ADS-B
Tue 05:14:10 PM 42.4720 -95.5470 81° East 523 602 39,000  Level FlightAware ADS-B
Tue 05:14:48 PM 42.4860 -95.4270 81° East 522 601 39,000  Level FlightAware ADS-B
Tue 05:15:22 PM 42.4990 -95.3150 81° East 521 600 39,000  Level FlightAware ADS-B
Tue 05:15:58 PM 42.5120 -95.2000 81° East 521 600 39,000  Level FlightAware ADS-B
Tue 05:16:34 PM 42.5250 -95.0840 81° East 521 600 39,000  Level FlightAware ADS-B
Tue 05:17:04 PM 42.5360 -94.9860 81° East 520 598 39,000  Level FlightAware ADS-B
Tue 05:17:42 PM 42.5500 -94.8640 81° East 520 598 39,000  Level FlightAware ADS-B
Tue 05:18:18 PM 42.5620 -94.7550 81° East 520 598 39,000  Level FlightAware ADS-B
Tue 05:18:50 PM 42.5730 -94.6470 82° East 520 598 39,000  Level FlightAware ADS-B
Tue 05:19:26 PM 42.5850 -94.5350 82° East 520 598 39,000  Level FlightAware ADS-B
Tue 05:20:02 PM 42.5980 -94.4160 82° East 520 598 39,000  Level FlightAware ADS-B
Tue 05:20:35 PM 42.6080 -94.3120 83° East 520 598 39,000  Level FlightAware ADS-B
Tue 05:21:12 PM 42.6120 -94.1880 87° East 522 601 39,000  Level FlightAware ADS-B
Tue 05:21:48 PM 42.6130 -94.0700 89° East 522 601 39,000  Level FlightAware ADS-B
Tue 05:22:25 PM 42.6140 -93.9510 89° East 520 598 39,000  Level FlightAware ADS-B
Tue 05:22:56 PM 42.6150 -93.8470 89° East 520 598 39,000  Level FlightAware ADS-B
Tue 05:23:32 PM 42.6150 -93.7300 90° East 519 597 39,000  Level FlightAware ADS-B
Tue 05:24:08 PM 42.6160 -93.6150 89° East 519 597 39,000  Level FlightAware ADS-B
Tue 05:24:40 PM 42.6160 -93.5090 90° East 518 596 39,000  Level FlightAware ADS-B
Tue 05:25:18 PM 42.6160 -93.3880 90° East 517 595 39,000  Level FlightAware ADS-B
Tue 05:25:52 PM 42.6170 -93.2760 89° East 517 595 39,000  Level FlightAware ADS-B
Tue 05:26:34 PM 42.6170 -93.1410 90° East 516 594 39,000  Level FlightAware ADS-B
Tue 05:27:11 PM 42.6170 -93.0250 90° East 515 593 39,000  Level FlightAware ADS-B
Tue 05:27:42 PM 42.6160 -92.9240 91° East 514 592 39,000  Level FlightAware ADS-B
Tue 05:28:19 PM 42.6160 -92.8080 90° East 514 592 39,000  Level FlightAware ADS-B
Tue 05:28:54 PM 42.6160 -92.6960 90° East 513 590 39,000  Level FlightAware ADS-B
Tue 05:29:30 PM 42.6150 -92.5800 91° East 513 590 39,000  Level FlightAware ADS-B
Tue 05:30:04 PM 42.6150 -92.4690 90° East 512 589 39,000  Level FlightAware ADS-B
Tue 05:30:40 PM 42.6140 -92.3550 91° East 512 589 39,000  Level FlightAware ADS-B
Tue 05:31:16 PM 42.6130 -92.2410 91° East 511 588 39,000  Level FlightAware ADS-B
Tue 05:31:52 PM 42.6120 -92.1200 91° East 511 588 39,000  Level FlightAware ADS-B
Tue 05:32:23 PM 42.6110 -92.0230 91° East 510 587 39,000  Level FlightAware ADS-B
Tue 05:32:58 PM 42.6100 -91.9090 91° East 509 586 39,000  Level FlightAware ADS-B
Tue 05:33:36 PM 42.6080 -91.7900 91° East 509 586 39,000  Level FlightAware ADS-B
Tue 05:34:06 PM 42.6070 -91.6940 91° East 509 586 39,000  Level FlightAware ADS-B
Tue 05:34:44 PM 42.6060 -91.5730 91° East 508 585 39,000  Level FlightAware ADS-B
Tue 05:35:16 PM 42.6040 -91.4730 92° East 508 585 39,000  Level FlightAware ADS-B
Tue 05:35:55 PM 42.6020 -91.3500 91° East 508 585 39,000  Level FlightAware ADS-B
Tue 05:36:32 PM 42.6000 -91.2330 91° East 507 583 39,000  Level FlightAware ADS-B
Tue 05:37:04 PM 42.5990 -91.1330 91° East 506 582 39,000  Level FlightAware ADS-B
Tue 05:37:40 PM 42.5970 -91.0180 91° East 506 582 39,000  Level FlightAware ADS-B
Tue 05:38:12 PM 42.5940 -90.9130 92° East 506 582 39,000  Level FlightAware ADS-B
Tue 05:38:48 PM 42.5920 -90.8010 91° East 505 581 39,000  Level FlightAware ADS-B
Tue 05:39:22 PM 42.5900 -90.6970 91° East 504 580 39,000  Level FlightAware ADS-B
Tue 05:41:21 PM 42.5850 -90.3690 91° East 504 580 39,000  Level FlightAware ADS-B
Tue 05:42:04 PM 42.5780 -90.1850 93° East 502 578 39,000  Level FlightAware ADS-B
Tue 05:42:40 PM 42.5750 -90.0720 92° East 501 577 39,000  Level FlightAware ADS-B
Tue 05:43:15 PM 42.5720 -89.9590 92° East 500 575 39,000  Level FlightAware ADS-B
Tue 05:43:51 PM 42.5690 -89.8490 92° East 500 575 39,000  Level FlightAware ADS-B
Tue 05:44:25 PM 42.5650 -89.7410 93° East 501 577 39,000  Level FlightAware ADS-B
Tue 05:45:01 PM 42.5620 -89.6280 92° East 501 577 39,000  Level FlightAware ADS-B
Tue 05:45:36 PM 42.5590 -89.5210 92° East 502 578 39,000  Level FlightAware ADS-B
Tue 05:46:13 PM 42.5550 -89.4040 93° East 502 578 39,000  Level FlightAware ADS-B
Tue 05:46:45 PM 42.5520 -89.3060 92° East 503 579 39,000  Level FlightAware ADS-B
Tue 05:47:21 PM 42.5480 -89.1930 93° East 504 580 39,000  Level FlightAware ADS-B
Tue 05:47:56 PM 42.5440 -89.0860 93° East 504 580 39,000  Level FlightAware ADS-B
Tue 05:48:33 PM 42.5400 -88.9650 93° East 504 580 39,000  Level FlightAware ADS-B
Tue 05:49:05 PM 42.5360 -88.8650 93° East 505 581 39,000  Level FlightAware ADS-B
Tue 05:49:41 PM 42.5310 -88.7500 93° East 505 581 39,000  Level FlightAware ADS-B
Tue 05:50:17 PM 42.5270 -88.6420 93° East 506 582 39,000  Level FlightAware ADS-B
Tue 05:50:53 PM 42.5230 -88.5290 93° East 507 583 39,000  Level FlightAware ADS-B
Tue 05:51:25 PM 42.5180 -88.4250 94° East 506 582 39,000  Level FlightAware ADS-B
Tue 05:51:59 PM 42.5140 -88.3180 93° East 506 582 39,000  Level FlightAware ADS-B
Tue 05:52:37 PM 42.5090 -88.1990 93° East 505 581 39,000  Level FlightAware ADS-B
Tue 05:53:13 PM 42.5040 -88.0800 93° East 504 580 39,000  Level FlightAware ADS-B
Tue 05:53:41 PM 42.5010 -87.9970 93° East 504 580 39,000  Level FlightAware ADS-B
Tue 05:54:21 PM 42.5000 -87.8740 91° East 503 579 39,000  Level FlightAware ADS-B
Tue 05:54:55 PM 42.5000 -87.7590 90° East 501 577 39,000  Level FlightAware ADS-B
Tue 05:55:33 PM 42.5000 -87.6450 90° East 500 575 39,000  Level FlightAware ADS-B
Tue 05:56:05 PM 42.4990 -87.5460 91° East 500 575 39,000  Level FlightAware ADS-B
Tue 05:56:37 PM 42.4990 -87.4400 90° East 499 574 39,000  Level FlightAware ADS-B
Tue 05:57:17 PM 42.4980 -87.3150 91° East 499 574 39,000  Level FlightAware ADS-B
Tue 05:57:49 PM 42.4980 -87.2130 90° East 500 575 39,000  Level FlightAware ADS-B
Tue 05:58:25 PM 42.4970 -87.1050 91° East 501 577 39,000  Level FlightAware ADS-B
Tue 05:58:59 PM 42.4960 -86.9960 91° East 500 575 39,000  Level FlightAware ADS-B
Tue 05:59:35 PM 42.4950 -86.8820 91° East 500 575 39,000  Level FlightAware ADS-B
Tue 06:00:11 PM 42.4940 -86.7790 91° East 500 575 39,000  Level FlightAware ADS-B
Tue 06:00:45 PM 42.4930 -86.6650 91° East 500 575 39,000  Level FlightAware ADS-B
Tue 06:01:21 PM 42.4910 -86.5600 91° East 501 577 39,000  Level FlightAware ADS-B
Tue 06:01:55 PM 42.4900 -86.4520 91° East 502 578 39,000  Level FlightAware ADS-B
Tue 06:02:33 PM 42.4880 -86.3290 91° East 503 579 39,000  Level FlightAware ADS-B
Tue 06:03:03 PM 42.4870 -86.2330 91° East 505 581 39,000  Level FlightAware ADS-B
Tue 06:03:40 PM 42.4850 -86.1150 91° East 506 582 39,000  Level FlightAware ADS-B
Tue 06:04:12 PM 42.4830 -86.0130 91° East 507 583 39,000  Level FlightAware ADS-B
Tue 06:04:50 PM 42.4810 -85.8930 91° East 508 585 39,000  Level FlightAware ADS-B
Tue 06:05:26 PM 42.4790 -85.7790 91° East 509 586 39,000  Level FlightAware ADS-B
Tue 06:05:59 PM 42.4770 -85.6770 91° East 510 587 39,000  Level FlightAware ADS-B
Tue 06:06:34 PM 42.4750 -85.5640 91° East 512 589 39,000  Level FlightAware ADS-B
Tue 06:07:10 PM 42.4720 -85.4450 92° East 513 590 39,000  Level FlightAware ADS-B
Tue 06:07:44 PM 42.4700 -85.3400 91° East 514 592 39,000  Level FlightAware ADS-B
Tue 06:08:20 PM 42.4670 -85.2230 92° East 515 593 39,000  Level FlightAware ADS-B
Tue 06:08:56 PM 42.4640 -85.1080 92° East 516 594 39,000  Level FlightAware ADS-B
Tue 06:09:31 PM 42.4610 -84.9940 92° East 517 595 39,000  Level FlightAware ADS-B
Tue 06:10:12 PM 42.4580 -84.8690 92° East 519 597 39,000  Level FlightAware ADS-B
Tue 06:10:48 PM 42.4550 -84.7460 92° East 520 598 39,000  Level FlightAware ADS-B
Tue 06:11:20 PM 42.4520 -84.6480 92° East 521 600 39,000  Level FlightAware ADS-B
Tue 06:12:00 PM 42.4480 -84.5280 93° East 523 602 39,000  Level FlightAware ADS-B
Tue 06:12:32 PM 42.4450 -84.4110 92° East 524 603 39,000  Level FlightAware ADS-B
Tue 06:13:08 PM 42.4410 -84.2930 93° East 526 605 39,000  Level FlightAware ADS-B
Tue 06:13:43 PM 42.4380 -84.1830 92° East 527 606 39,000  Level FlightAware ADS-B
Tue 06:14:16 PM 42.4340 -84.0640 93° East 527 606 39,000  Level FlightAware ADS-B
Tue 06:14:54 PM 42.4290 -83.9380 93° East 527 606 39,000  Level FlightAware ADS-B
Tue 06:15:26 PM 42.4250 -83.8330 93° East 528 608 39,000  Level FlightAware ADS-B
Tue 06:16:02 PM 42.4210 -83.7160 93° East 528 608 39,000  Level FlightAware ADS-B
Tue 06:16:38 PM 42.4170 -83.5970 93° East 528 608 39,000  Level FlightAware ADS-B
Tue 06:17:14 PM 42.4120 -83.4770 93° East 529 609 39,000  Level FlightAware ADS-B
Tue 06:17:46 PM 42.4080 -83.3710 93° East 531 611 39,000  Level FlightAware ADS-B
Tue 06:18:22 PM 42.4030 -83.2520 93° East 532 612 39,000  Level FlightAware ADS-B
Tue 06:18:58 PM 42.3980 -83.1330 93° East 532 612 39,000  Level FlightAware ADS-B
Tue 06:19:34 PM 42.3930 -83.0140 93° East 532 612 39,000  Level FlightAware ADS-B
Tue 06:19:58 PM 42.3890 -82.9360 94° East 532 612 39,000  Level FlightAware ADS-B
Tue 06:20:50 PM 42.3820 -82.7730 93° East 533 613 39,000  Level FlightAware ADS-B
Tue 06:21:28 PM 42.3760 -82.6390 93° East 532 612 39,000  Level FlightAware ADS-B
Tue 06:22:03 PM 42.3720 -82.5220 93° East 533 613 39,000  Level FlightAware ADS-B
Tue 06:22:36 PM 42.3680 -82.4160 93° East 534 615 39,000  Level FlightAware ADS-B
Tue 06:22:40 PM 42.3670 -82.3960 94° East 534 615 39,000  Level FlightAware ADS-B
Tue 06:23:46 PM 42.3580 -82.1820 93° East 536 617 39,000  Level FlightAware ADS-B
Tue 06:24:16 PM 42.3540 -82.0810 93° East 537 618 39,000  Level FlightAware ADS-B
Tue 06:24:56 PM 42.3490 -81.9650 93° East 538 619 39,000  Level FlightAware ADS-B
Tue 06:25:29 PM 42.3440 -81.8540 93° East 539 620 39,000  Level FlightAware ADS-B
Tue 06:26:07 PM 42.3390 -81.7330 93° East 539 620 39,000  Level FlightAware ADS-B
Tue 06:26:40 PM 42.3330 -81.6130 94° East 540 621 39,000  Level FlightAware ADS-B
Tue 06:27:11 PM 42.3280 -81.5160 94° East 540 621 39,000  Level FlightAware ADS-B
Tue 06:27:52 PM 42.3210 -81.3750 94° East 541 623 39,000  Level FlightAware ADS-B
Tue 06:28:25 PM 42.3160 -81.2610 93° East 542 624 39,000  Level FlightAware ADS-B
Tue 06:28:55 PM 42.3110 -81.1660 94° East 542 624 39,000  Level FlightAware ADS-B
Tue 06:29:36 PM 42.3040 -81.0350 94° East 543 625 39,000  Level FlightAware ADS-B
Tue 06:30:08 PM 42.2980 -80.9100 94° East 543 625 39,000  Level FlightAware ADS-B
Tue 06:30:44 PM 42.2920 -80.7980 94° East 544 626 39,000  Level FlightAware ADS-B
Tue 06:31:18 PM 42.2850 -80.6820 95° East 545 627 39,000  Level FlightAware ADS-B
Tue 06:31:59 PM 42.2770 -80.5300 94° East 545 627 39,000  Level FlightAware ADS-B
Tue 06:32:35 PM 42.2700 -80.4150 95° East 545 627 39,000  Level FlightAware ADS-B
Tue 06:33:14 PM 42.2630 -80.2860 94° East 545 627 39,000  Level FlightAware ADS-B
Tue 06:33:52 PM 42.2550 -80.1580 95° East 544 626 39,000  Level FlightAware ADS-B
Tue 06:34:30 PM 42.2480 -80.0360 94° East 542 624 39,000  Level FlightAware ADS-B
Tue 06:35:08 PM 42.2410 -79.9200 95° East 540 621 39,000  Level FlightAware ADS-B
Tue 06:35:41 PM 42.2310 -79.7920 96° East 539 620 39,000  Level FlightAware ADS-B
Tue 06:36:20 PM 42.2150 -79.6710 100° East 538 619 39,000  Level FlightAware ADS-B
Tue 06:36:57 PM 42.1940 -79.5430 102° East 536 617 39,000  Level FlightAware ADS-B
Tue 06:37:30 PM 42.1750 -79.4380 104° East 534 615 39,000  Level FlightAware ADS-B
Tue 06:38:09 PM 42.1520 -79.3140 104° East 530 610 39,000  Level FlightAware ADS-B
Tue 06:38:46 PM 42.1290 -79.1950 105° East 528 608 39,000  Level FlightAware ADS-B
Tue 06:39:20 PM 42.1090 -79.0870 104° East 525 604 39,000 -83 Level FlightAware ADS-B
Tue 06:39:58 PM 42.0850 -78.9660 105° East 522 601 38,900 -1,188 Descending FlightAware ADS-B
Tue 06:41:01 PM 42.0430 -78.7440 104° East 542 624 37,000 -1,152 Descending FlightAware ADS-B
Tue 06:41:37 PM 42.0190 -78.6250 105° East 545 627 37,000  Level FlightAware ADS-B
Tue 06:42:11 PM 41.9980 -78.5150 104° East 545 627 37,000  Level FlightAware ADS-B
Tue 06:42:47 PM 41.9790 -78.4210 105° East 544 626 37,000  Level FlightAware ADS-B
Tue 06:43:18 PM 41.9550 -78.3020 105° East 544 626 37,000  Level FlightAware ADS-B
Tue 06:43:52 PM 41.9340 -78.1950 105° East 543 625 37,000  Level FlightAware ADS-B
Tue 06:44:30 PM 41.9080 -78.0650 105° East 542 624 37,000  Level FlightAware ADS-B
Tue 06:45:06 PM 41.8840 -77.9460 105° East 541 623 37,000  Level FlightAware ADS-B
Tue 06:45:14 PM 41.8790 -77.9190 104° East 541 623 37,000  Level FlightAware ADS-B
Tue 06:45:54 PM 41.8490 -77.7900 107° East 541 623 37,000  Level FlightAware ADS-B
Tue 06:48:22 PM 41.7260 -77.3290 110° East 536 617 37,000  Level FlightAware ADS-B
Tue 06:48:56 PM 41.6980 -77.2230 109° East 531 611 37,000  Level FlightAware ADS-B
Tue 06:49:30 PM 41.6700 -77.1210 110° East 525 604 37,000  Level FlightAware ADS-B
Tue 06:50:06 PM 41.6470 -77.0330 109° East 518 596 37,000  Level FlightAware ADS-B
Tue 06:50:40 PM 41.6160 -76.9210 110° East 512 589 37,000  Level FlightAware ADS-B
Tue 06:51:13 PM 41.5859 -76.8090 110° East 513 590 37,000  Level FlightAware ADS-B
Tue 06:51:46 PM 41.5593 -76.7117 110° East 515 593 37,000  Level FlightAware ADS-B
Tue 06:52:17 PM 41.5337 -76.6190 110° East 519 597 37,000  Level FlightAware ADS-B
Tue 06:52:56 PM 41.5016 -76.5025 110° East 522 601 37,000 -171 Level FlightAware ADS-B
Tue 06:53:27 PM 41.4754 -76.4085 110° East 524 603 36,800 -1,082 Descending FlightAware ADS-B
Tue 06:53:57 PM 41.4501 -76.3176 110° East 525 604 35,900 -2,129 Descending FlightAware ADS-B
Tue 06:54:29 PM 41.4233 -76.2214 110° East 523 602 34,600 -2,344 Descending FlightAware ADS-B
Tue 06:55:01 PM 41.3970 -76.1270 110° East 516 594 33,400 -2,318 Descending FlightAware ADS-B
Tue 06:55:13 PM 41.3862 -76.0896 111° Southeast 517 595 32,900 -2,533 Descending FlightAware ADS-B
Tue 06:55:46 PM 41.3590 -75.9929 111° Southeast 509 586 31,500 -2,545 Descending FlightAware ADS-B
Tue 06:56:19 PM 41.3321 -75.8975 111° Southeast 504 580 30,100 -2,344 Descending FlightAware ADS-B
Tue 06:56:50 PM 41.3071 -75.8093 111° Southeast 496 571 29,000 -2,066 Descending FlightAware ADS-B
Tue 06:57:20 PM 41.2824 -75.7233 111° Southeast 485 558 28,000 -1,935 Descending FlightAware ADS-B
Tue 06:57:52 PM 41.2558 -75.6381 113° Southeast 474 545 27,000 -1,935 Descending FlightAware ADS-B
Tue 06:58:22 PM 41.2294 -75.5582 114° Southeast 463 533 26,000 -2,000 Descending FlightAware ADS-B
Tue 06:58:52 PM 41.2036 -75.4811 114° Southeast 457 526 25,000 -1,967 Descending FlightAware ADS-B
Tue 06:59:23 PM 41.1778 -75.4047 114° Southeast 448 516 24,000 -1,727 Descending FlightAware ADS-B
Tue 06:59:58 PM 41.1487 -75.3184 114° Southeast 439 505 23,100 -909 Descending FlightAware ADS-B
Tue 07:00:29 PM 41.1226 -75.2413 114° Southeast 440 506 23,000 -871 Descending FlightAware ADS-B
Tue 07:01:00 PM 41.0967 -75.1651 114° Southeast 441 507 22,200 -1,065 Descending FlightAware ADS-B
Tue 07:01:31 PM 41.0708 -75.0886 114° Southeast 442 509 21,900 -689 Descending FlightAware ADS-B
Tue 07:02:01 PM 41.0456 -75.0146 114° Southeast 433 498 21,500 -774 Descending FlightAware ADS-B
Tue 07:02:33 PM 41.0205 -74.9411 114° Southeast 412 474 21,100 -588 Descending FlightAware ADS-B
Tue 07:02:52 PM 41.0062 -74.8973 113° Southeast 393 452 21,000 -194 Descending FlightAware ADS-B
Tue 07:03:04 PM 40.9993 -74.8705 109° East 383 441 21,000  Level FlightAware ADS-B
Tue 07:03:35 PM 40.9883 -74.8015 102° East 373 429 21,000  Level FlightAware ADS-B
Tue 07:03:58 PM 40.9828 -74.7491 98° East 372 428 21,000  Level FlightAware ADS-B
Tue 07:04:05 PM 40.9824 -74.7323 92° East 369 425 21,000  Level FlightAware ADS-B
Tue 07:04:13 PM 40.9839 -74.7147 84° East 366 421 21,000  Level FlightAware ADS-B
Tue 07:04:21 PM 40.9873 -74.6974 75° East 365 420 21,000  Level FlightAware ADS-B
Tue 07:04:29 PM 40.9919 -74.6823 68° East 364 419 21,000  Level FlightAware ADS-B
Tue 07:04:59 PM 41.0158 -74.6223 62° Northeast 365 420 21,000  Level FlightAware ADS-B
Tue 07:05:30 PM 41.0411 -74.5612 61° Northeast 362 417 21,000  Level FlightAware ADS-B
Tue 07:06:01 PM 41.0659 -74.5013 61° Northeast 362 417 21,000 -146 Level FlightAware ADS-B
Tue 07:06:11 PM 41.0725 -74.4824 65° Northeast 366 421 20,900 -333 Descending FlightAware ADS-B
Tue 07:06:19 PM 41.0756 -74.4637 78° East 370 426 20,900 -429 Level FlightAware ADS-B
Tue 07:06:25 PM 41.0761 -74.4511 87° East 370 426 20,800 -1,000 Descending FlightAware ADS-B
Tue 07:06:37 PM 41.0733 -74.4233 98° East 372 428 20,600 -1,154 Descending FlightAware ADS-B
Tue 07:06:51 PM 41.0645 -74.3932 111° Southeast 370 426 20,300 -1,200 Descending FlightAware ADS-B
Tue 07:06:57 PM 41.0593 -74.3819 121° Southeast 369 425 20,200 -1,385 Descending FlightAware ADS-B
Tue 07:07:04 PM 41.0524 -74.3696 127° Southeast 366 421 20,000 -1,500 Descending FlightAware ADS-B
Tue 07:07:41 PM 41.0138 -74.3046 128° Southeast 362 417 19,100 -857 Descending FlightAware ADS-B
Tue 07:08:14 PM 40.9798 -74.2470 128° Southeast 362 417 19,000 -94 Descending FlightAware ADS-B
Tue 07:08:45 PM 40.9482 -74.1929 128° Southeast 363 418 19,000  Level FlightAware ADS-B
Tue 07:09:16 PM 40.9166 -74.1388 128° Southeast 362 417 19,000 -267 Level FlightAware ADS-B
Tue 07:09:30 PM 40.8996 -74.1194 139° Southeast 354 407 18,800 -750 Descending FlightAware ADS-B
Tue 07:09:32 PM 40.8972 -74.1172 145° Southeast 352 405 18,800 -923 Level FlightAware ADS-B
Tue 07:09:43 PM 40.8818 -74.1058 151° Southeast 347 399 18,600 -1,000 Descending FlightAware ADS-B
Tue 07:09:44 PM 40.8796 -74.1044 154° Southeast 346 398 18,600 -1,500 Level FlightAware ADS-B
Tue 07:09:51 PM 40.8697 -74.0990 158° South 344 396 18,400 -1,742 Descending FlightAware ADS-B
Tue 07:10:15 PM 40.8342 -74.0826 161° South 341 392 17,700 -1,800 Descending FlightAware ADS-B
Tue 07:10:21 PM 40.8243 -74.0783 162° South 341 392 17,500 -1,548 Descending FlightAware ADS-B
Tue 07:10:46 PM 40.7877 -74.0623 162° South 338 389 16,900 -1,538 Descending FlightAware ADS-B
Tue 07:11:00 PM 40.7661 -74.0529 162° South 336 387 16,500 -1,600 Descending FlightAware ADS-B
Tue 07:11:16 PM 40.7433 -74.0429 162° South 335 386 16,100 -875 Descending FlightAware ADS-B
Tue 07:11:48 PM 40.6969 -74.0233 162° South 331 381 15,800 -290 Descending FlightAware ADS-B
Tue 07:12:18 PM 40.6514 -74.0045 163° South 333 383 15,800 -295 Level FlightAware ADS-B
Tue 07:12:49 PM 40.6069 -73.9859 162° South 330 380 15,500 -686 Descending FlightAware ADS-B
Tue 07:12:53 PM 40.6011 -73.9835 163° South 329 379 15,400 -1,548 Descending FlightAware ADS-B
Tue 07:13:20 PM 40.5623 -73.9675 163° South 328 377 14,700 -1,579 Descending FlightAware ADS-B
Tue 07:13:50 PM 40.5183 -73.9498 163° South 327 376 13,900 -1,600 Descending FlightAware ADS-B
Tue 07:14:20 PM 40.4748 -73.9329 164° South 325 374 13,100 -1,082 Descending FlightAware ADS-B
Tue 07:14:51 PM 40.4314 -73.9165 164° South 307 353 12,800 -290 Descending FlightAware ADS-B
Tue 07:15:22 PM 40.3911 -73.9008 163° South 279 321 12,800  Level FlightAware ADS-B
Tue 07:15:36 PM 40.3745 -73.8945 164° South 272 313 12,800  Level FlightAware ADS-B
Tue 07:15:48 PM 40.3593 -73.8934 177° South 261 300 12,800 -714 Level FlightAware ADS-B
Tue 07:16:18 PM 40.3239 -73.9025 191° South 255 293 12,300 -1,048 Descending FlightAware ADS-B
Tue 07:16:51 PM 40.2861 -73.9133 192° South 252 290 11,700 -1,231 Descending FlightAware ADS-B
Tue 07:16:57 PM 40.2793 -73.9141 185° South 255 293 11,500 -1,412 Descending FlightAware ADS-B
Tue 07:17:25 PM 40.2503 -73.8949 153° Southeast 265 305 10,900 -1,273 Descending FlightAware ADS-B
Tue 07:17:30 PM 40.2470 -73.8879 122° Southeast 265 305 10,800 -1,500 Descending FlightAware ADS-B
Tue 07:17:41 PM 40.2421 -73.8717 112° Southeast 266 306 10,500 -1,256 Descending FlightAware ADS-B
Tue 07:18:13 PM 40.2330 -73.8260 105° East 262 302 9,900 -1,279 Descending FlightAware ADS-B
Tue 07:18:42 PM 40.2468 -73.7811 68° East 267 307 9,200 -1,371 Descending FlightAware ADS-B
Tue 07:18:48 PM 40.2504 -73.7728 60° Northeast 254 292 9,100 -1,043 Descending FlightAware ADS-B
Tue 07:19:05 PM 40.2604 -73.7499 60° Northeast 252 290 8,800 -1,116 Descending FlightAware ADS-B
Tue 07:19:31 PM 40.2772 -73.7177 56° Northeast 247 284 8,300 -1,200 Descending FlightAware ADS-B
Tue 07:19:50 PM 40.2927 -73.7000 41° Northeast 245 282 7,900 -1,099 Descending FlightAware ADS-B
Tue 07:20:42 PM 40.3371 -73.6510 40° Northeast 241 277 7,000 -957 Descending FlightAware ADS-B
Tue 07:20:59 PM 40.3517 -73.6349 40° Northeast 234 269 6,800 -364 Descending FlightAware ADS-B
Tue 07:21:15 PM 40.3652 -73.6202 40° Northeast 235 270 6,800  Level FlightAware ADS-B
Tue 07:21:30 PM 40.3786 -73.6087 33° Northeast 231 266 6,800  Level FlightAware ADS-B
Tue 07:21:46 PM 40.3932 -73.5974 31° Northeast 233 268 6,800  Level FlightAware ADS-B
Tue 07:22:04 PM 40.4103 -73.5844 30° Northeast 233 268 6,800  Level FlightAware ADS-B
Tue 07:22:40 PM 40.4420 -73.5600 30° Northeast 231 266 6,800  Level FlightAware ADS-B
Tue 07:23:00 PM 40.4610 -73.5460 29° Northeast 229 264 6,800  Level FlightAware ADS-B
Tue 07:23:21 PM 40.4808 -73.5311 30° Northeast 230 265 6,800  Level FlightAware ADS-B
Tue 07:23:36 PM 40.4952 -73.5200 30° Northeast 230 265 6,800  Level FlightAware ADS-B
Tue 07:23:55 PM 40.5127 -73.5066 30° Northeast 229 264 6,800 -154 Level FlightAware ADS-B
Tue 07:24:15 PM 40.5309 -73.4926 30° Northeast 235 270 6,700 -774 Descending FlightAware ADS-B
Tue 07:24:57 PM 40.5700 -73.4620 31° Northeast 233 268 6,000 -1,065 Descending FlightAware ADS-B
Tue 07:25:17 PM 40.5890 -73.4480 29° Northeast 231 266 5,600 -1,263 Descending FlightAware ADS-B
Tue 07:25:35 PM 40.6050 -73.4360 30° Northeast 230 265 5,200 -1,050 Descending FlightAware ADS-B
Tue 07:25:57 PM 40.6250 -73.4200 31° Northeast 227 261 4,900 -571 Descending FlightAware ADS-B
Tue 07:26:17 PM 40.6440 -73.4090 24° Northeast 227 261 4,800 -231 Descending FlightAware ADS-B
Tue 07:26:23 PM 40.6500 -73.4070 14° North 224 258 4,800  Level FlightAware ADS-B
Tue 07:26:45 PM 40.6710 -73.4170 340° North 219 252 4,800  Level FlightAware ADS-B
Tue 07:27:05 PM 40.6880 -73.4310 328° Northwest 218 251 4,800 -316 Level FlightAware ADS-B
Tue 07:27:23 PM 40.7030 -73.4440 327° Northwest 213 245 4,600 -923 Descending FlightAware ADS-B
Tue 07:27:31 PM 40.7090 -73.4520 315° West 212 244 4,400 -1,071 Descending FlightAware ADS-B
Tue 07:27:51 PM 40.7210 -73.4700 311° West 210 242 4,100 -900 Descending FlightAware ADS-B
Tue 07:28:11 PM 40.7330 -73.4900 308° West 211 243 3,800 -563 Descending FlightAware ADS-B
Tue 07:28:23 PM 40.7410 -73.5030 309° West 213 245 3,800 -167 Level FlightAware ADS-B
Tue 07:28:47 PM 40.7550 -73.5270 308° West 191 220 3,700 -273 Descending FlightAware ADS-B
Tue 07:29:07 PM 40.7650 -73.5440 308° West 177 204 3,600 -585 Descending FlightAware ADS-B
Tue 07:29:28 PM 40.7750 -73.5610 308° West 173 199 3,300 -833 Descending FlightAware ADS-B
Tue 07:29:43 PM 40.7820 -73.5760 302° West 172 198 3,100 -857 Descending FlightAware ADS-B
Tue 07:30:03 PM 40.7890 -73.5920 300° West 175 201 2,800 -429 Descending FlightAware ADS-B
Tue 07:30:25 PM 40.7950 -73.6160 288° West 177 204 2,800  Level FlightAware ADS-B
Tue 07:30:53 PM 40.7890 -73.6450 255° West 181 208 2,800  Level FlightAware ADS-B
Tue 07:31:05 PM 40.7840 -73.6570 241° Southwest 182 209 2,800  Level FlightAware ADS-B
Tue 07:31:21 PM 40.7750 -73.6710 230° Southwest 185 213 2,800 -486 Level FlightAware ADS-B
Tue 07:31:42 PM 40.7600 -73.6860 217° Southwest 194 223 2,500 -938 Descending FlightAware ADS-B
Tue 07:31:53 PM 40.7520 -73.6930 214° Southwest 193 222 2,300 -1,029 Descending FlightAware ADS-B
Tue 07:32:17 PM 40.7330 -73.7060 207° Southwest 180 207 1,900 -1,024 Descending FlightAware ADS-B
Tue 07:32:34 PM 40.7220 -73.7130 206° Southwest 161 185 1,600 -857 Descending FlightAware ADS-B
Tue 07:32:59 PM 40.7070 -73.7240 209° Southwest 141 162 1,300 -800 Descending FlightAware ADS-B
Tue 07:33:19 PM 40.6950 -73.7320 207° Southwest 141 162 1,000 -732 Descending FlightAware ADS-B
Tue 07:33:40 PM 40.6830 -73.7390 204° Southwest 141 162 800 -750 Descending FlightAware ADS-B
Tue 07:33:59 PM 40.6720 -73.7470 209° Southwest 138 159 500 -857 Descending FlightAware ADS-B
Tue 07:34:15 PM 40.6630 -73.7540 211° Southwest 137 158 300 -667 Descending FlightAware ADS-B
Tue 07:34:35 PM 40.6520 -73.7620 209° Southwest 133 153 100 -600 Descending FlightAware ADS-B
Tue 07:34:55 PM 40.6420 -73.7700 211° Southwest 136 157 -300 Descending FlightAware ADS-B

Login

Don't have an account? Register now (free) for customized features, flight alerts, and more!